Terminal Aerodrome Forecast
Issued by NWS

Home | Current Version | Previous Version | Text Only | Print | Product List | Glossary On
Versions: 1 2 3 4 5 6 7 8 9 10 11 12 13 14 15 16 17 18 19 20 21 22 23
000
FTUS43 KLSX 260143 AAB
TAFCPS
TAF AMD
KCPS 260143Z 2602/2624 02007KT P6SM VCSH SCT025 SCT060
      TEMPO 2602/2604 5SM -SHRA BKN025
     FM260400 03005KT P6SM SCT050
     FM260900 VRB03KT 5SM BR SCT020 BKN035
      TEMPO 2609/2613 1SM BR BKN015
     FM261300 04004KT 5SM BR BKN020
     FM261500 07004KT P6SM BKN035=

USA.gov is the U.S. government's official web portal to all federal, state and local government web resources and services.